Time;durP1;ratioP1;P1;durP2;ratioP2;P2;SDS_P1;SDS_P2;PMS_P1;PMS_P2;Temp;Humidity;BMP_temperature;BMP_pressure;BME280_temperature;BME280_humidity;BME280_pressure;Samples;Min_cycle;Max_cycle;Signal;HPM_P1;HPM_P2
2023/12/20 00:01:49;;;;;;;;;;;;;;;9.09;61.75;97316.66;4169100;28;5876;-69
2023/12/20 00:03:52;;;;;;;;;;;;;;;9.10;61.77;97305.13;4176850;28;5855;-70
2023/12/20 00:05:55;;;;;;;;;;;;;;;9.12;61.89;97313.66;4168662;28;5532;-70
2023/12/20 00:07:58;;;;;;;;;;;;;;;9.13;61.84;97311.84;4167056;28;6669;-70
2023/12/20 00:10:02;;;;;;;;;;;;;;;9.13;61.75;97303.94;4169145;28;5855;-70
2023/12/20 00:12:05;;;;;;;;;;;;;;;9.15;61.78;97305.41;4168571;28;5828;-70
2023/12/20 00:14:08;;;;;;;;;;;;;;;9.15;61.59;97313.31;4169097;28;5857;-70
2023/12/20 00:16:11;;;;;;;;;;;;;;;9.17;61.66;97319.25;4168697;28;5734;-70
2023/12/20 00:18:14;;;;;;;;;;;;;;;9.16;61.32;97316.78;4165939;28;5812;-69
2023/12/20 00:20:17;;;;;;;;;;;;;;;9.17;61.21;97311.31;4165670;28;5183;-70
2023/12/20 00:22:21;;;;;;;;;;;;;;;9.17;61.20;97310.50;4166953;28;7737;-70
2023/12/20 00:24:25;;;;;;;;;;;;;;;9.16;61.26;97301.78;4168479;28;5733;-72
2023/12/20 00:26:28;;;;;;;;;;;;;;;9.14;61.04;97290.56;4169174;28;5198;-70
2023/12/20 00:28:31;;;;;;;;;;;;;;;9.15;61.19;97294.84;4168789;28;7710;-70
2023/12/20 00:30:34;;;;;;;;;;;;;;;9.14;60.95;97300.31;4168663;28;5739;-71
2023/12/20 00:32:37;;;;;;;;;;;;;;;9.14;61.38;97302.94;4168614;28;5722;-71
2023/12/20 00:34:40;;;;;;;;;;;;;;;9.17;61.09;97311.31;4168387;28;5994;-71
2023/12/20 00:36:43;;;;;;;;;;;;;;;9.17;61.04;97306.06;4172060;28;5700;-71
2023/12/20 00:38:49;;;;;;;;;;;;;;;9.18;60.96;97299.81;4171920;28;5900;-71
2023/12/20 00:40:52;;;;;;;;;;;;;;;9.18;60.97;97302.44;4170995;28;6402;-70
2023/12/20 00:42:55;;;;;;;;;;;;;;;9.20;60.92;97308.38;4168523;28;5827;-70
2023/12/20 00:44:58;;;;;;;;;;;;;;;9.21;60.77;97311.81;4168507;28;6475;-70
2023/12/20 00:47:02;;;;;;;;;;;;;;;9.22;60.77;97305.56;4167969;28;5859;-70
2023/12/20 00:49:05;;;;;;;;;;;;;;;9.23;61.23;97312.47;4167887;28;5726;-70
2023/12/20 00:51:08;;;;;;;;;;;;;;;9.23;60.68;97302.75;4169197;28;6074;-70
2023/12/20 00:53:10;;;;;;;;;;;;;;;9.24;60.76;97296.47;4169520;28;5733;-70
2023/12/20 00:55:15;;;;;;;;;;;;;;;9.25;60.53;97302.56;4160983;28;5734;-70
2023/12/20 00:57:18;;;;;;;;;;;;;;;9.23;60.66;97297.47;4168337;28;5729;-71
2023/12/20 00:59:21;;;;;;;;;;;;;;;9.23;60.64;97289.56;4166991;28;5835;-71
2023/12/20 01:01:23;;;;;;;;;;;;;;;9.25;60.93;97292.00;4169063;28;5737;-71
2023/12/20 01:03:26;;;;;;;;;;;;;;;9.25;60.86;97307.84;4167347;28;5654;-71
2023/12/20 01:05:29;;;;;;;;;;;;;;;9.23;60.59;97313.28;4168181;28;5944;-70
2023/12/20 01:07:32;;;;;;;;;;;;;;;9.25;60.58;97313.13;4167707;28;5741;-70
2023/12/20 01:09:34;;;;;;;;;;;;;;;9.23;60.78;97318.56;4163398;28;5968;-70
2023/12/20 01:11:38;;;;;;;;;;;;;;;9.25;60.46;97313.94;4168808;28;5873;-70
2023/12/20 01:13:41;;;;;;;;;;;;;;;9.28;60.51;97304.84;4168225;28;5750;-70
2023/12/20 01:15:43;;;;;;;;;;;;;;;9.28;60.74;97292.47;4169080;28;5723;-70
2023/12/20 01:17:46;;;;;;;;;;;;;;;9.30;60.59;97295.78;4167333;28;5726;-70
2023/12/20 01:19:49;;;;;;;;;;;;;;;9.31;60.58;97297.44;4167219;28;5873;-69
2023/12/20 01:21:52;;;;;;;;;;;;;;;9.32;60.39;97301.72;4157088;28;6712;-70
2023/12/20 01:23:55;;;;;;;;;;;;;;;9.33;60.34;97307.81;4165715;28;5733;-70
2023/12/20 01:25:59;;;;;;;;;;;;;;;9.33;60.51;97306.00;4171176;28;5856;-69
2023/12/20 01:28:04;;;;;;;;;;;;;;;9.34;60.34;97299.72;4168561;28;5745;-70
2023/12/20 01:30:08;;;;;;;;;;;;;;;9.36;60.49;97301.38;4167662;28;5745;-70
2023/12/20 01:32:10;;;;;;;;;;;;;;;9.35;60.39;97303.19;4158566;28;5658;-69
2023/12/20 01:34:13;;;;;;;;;;;;;;;9.37;60.59;97313.56;4167706;28;6616;-70
2023/12/20 01:36:16;;;;;;;;;;;;;;;9.36;60.35;97302.19;4169770;28;5834;-69
2023/12/20 01:38:18;;;;;;;;;;;;;;;9.36;60.17;97302.19;4168509;28;5796;-69
2023/12/20 01:40:21;;;;;;;;;;;;;;;9.39;60.24;97303.66;4168365;28;5733;-69
2023/12/20 01:42:24;;;;;;;;;;;;;;;9.37;60.27;97297.72;4169020;28;5740;-69
2023/12/20 01:44:28;;;;;;;;;;;;;;;9.39;60.43;97303.66;4167937;28;5742;-70
2023/12/20 01:46:31;;;;;;;;;;;;;;;9.39;59.92;97306.28;4165412;28;5743;-70
2023/12/20 01:48:34;;;;;;;;;;;;;;;9.42;60.38;97303.31;4162347;28;5758;-70
2023/12/20 01:50:38;;;;;;;;;;;;;;;9.42;60.13;97301.50;4167118;28;5737;-70
2023/12/20 01:52:43;;;;;;;;;;;;;;;9.42;59.81;97306.78;4167207;28;5754;-70
2023/12/20 01:54:46;;;;;;;;;;;;;;;9.43;60.33;97312.88;4167192;28;5744;-70
2023/12/20 01:56:51;;;;;;;;;;;;;;;9.43;59.95;97316.34;4167142;28;5825;-70
2023/12/20 01:58:55;;;;;;;;;;;;;;;9.43;60.17;97318.97;4167281;28;5888;-70
2023/12/20 02:01:00;;;;;;;;;;;;;;;9.43;59.86;97318.16;4151405;28;5886;-70
2023/12/20 02:03:03;;;;;;;;;;;;;;;9.42;59.81;97324.44;4170093;28;5770;-70
2023/12/20 02:05:06;;;;;;;;;;;;;;;9.45;59.94;97332.00;4169315;28;5733;-70
2023/12/20 02:07:10;;;;;;;;;;;;;;;9.46;59.76;97323.09;4166623;28;5860;-70
2023/12/20 02:09:13;;;;;;;;;;;;;;;9.46;59.88;97320.44;4165132;28;5125;-71
2023/12/20 02:11:16;;;;;;;;;;;;;;;9.48;60.09;97318.44;4166908;28;7757;-70
2023/12/20 02:13:19;;;;;;;;;;;;;;;9.47;59.87;97308.88;4166830;28;5789;-70
2023/12/20 02:15:22;;;;;;;;;;;;;;;9.46;59.84;97320.44;4166099;28;5944;-70
2023/12/20 02:17:28;;;;;;;;;;;;;;;9.48;59.93;97321.91;4166379;28;5734;-70
2023/12/20 02:19:31;;;;;;;;;;;;;;;9.49;60.03;97322.72;4165684;28;5726;-70
2023/12/20 02:21:36;;;;;;;;;;;;;;;9.48;59.90;97326.38;4165252;28;5742;-70
2023/12/20 02:23:39;;;;;;;;;;;;;;;9.46;60.00;97323.09;4166144;28;5734;-71
2023/12/20 02:25:42;;;;;;;;;;;;;;;9.45;60.13;97326.72;4163582;28;5832;-70
2023/12/20 02:27:44;;;;;;;;;;;;;;;9.45;60.28;97332.81;4164337;28;5769;-70
2023/12/20 02:29:48;;;;;;;;;;;;;;;9.45;60.05;97332.81;4167018;28;5808;-70
2023/12/20 02:31:51;;;;;;;;;;;;;;;9.46;60.53;97328.34;4168172;28;6662;-70
2023/12/20 02:33:54;;;;;;;;;;;;;;;9.47;60.39;97325.53;4167481;28;6633;-71
2023/12/20 02:35:57;;;;;;;;;;;;;;;9.48;60.58;97315.81;4162733;28;5859;-69
2023/12/20 02:38:01;;;;;;;;;;;;;;;9.48;60.67;97311.34;4168516;28;5813;-71
2023/12/20 02:40:05;;;;;;;;;;;;;;;9.48;60.77;97302.63;4169796;28;5737;-70
2023/12/20 02:42:07;;;;;;;;;;;;;;;9.48;60.80;97302.63;4169381;28;5888;-69
2023/12/20 02:44:10;;;;;;;;;;;;;;;9.49;60.71;97306.91;4169126;28;5881;-70
2023/12/20 02:46:15;;;;;;;;;;;;;;;9.48;60.82;97302.63;4162592;28;5733;-70
2023/12/20 02:48:18;;;;;;;;;;;;;;;9.49;60.81;97304.25;4170440;28;5730;-71
2023/12/20 02:50:21;;;;;;;;;;;;;;;9.50;60.72;97297.97;4169653;28;5913;-71
2023/12/20 02:52:25;;;;;;;;;;;;;;;9.50;60.95;97300.63;4168315;28;5737;-71
2023/12/20 02:54:29;;;;;;;;;;;;;;;9.50;60.87;97292.69;4170055;28;5857;-71
2023/12/20 02:56:32;;;;;;;;;;;;;;;9.51;60.74;97304.91;4166889;28;5775;-70
2023/12/20 02:58:35;;;;;;;;;;;;;;;9.51;60.99;97299.63;4168222;28;5874;-69
2023/12/20 03:00:38;;;;;;;;;;;;;;;9.51;60.99;97295.19;4168416;28;5737;-69
2023/12/20 03:02:42;;;;;;;;;;;;;;;9.50;61.00;97288.25;4168946;28;5788;-69
2023/12/20 03:04:45;;;;;;;;;;;;;;;9.52;61.22;97285.44;4169281;28;5990;-70
2023/12/20 03:06:47;;;;;;;;;;;;;;;9.53;61.16;97281.81;4166702;28;5725;-70
2023/12/20 03:08:50;;;;;;;;;;;;;;;9.53;61.10;97279.19;4166289;28;5984;-69
2023/12/20 03:10:56;;;;;;;;;;;;;;;9.52;61.16;97270.44;4168370;28;6657;-70
2023/12/20 03:12:58;;;;;;;;;;;;;;;9.52;61.19;97274.91;4164098;28;5935;-70
2023/12/20 03:15:01;;;;;;;;;;;;;;;9.52;61.28;97269.63;4171460;28;5904;-71
2023/12/20 03:17:04;;;;;;;;;;;;;;;9.52;60.93;97277.53;4163632;28;5716;-70
2023/12/20 03:19:06;;;;;;;;;;;;;;;9.51;61.12;97289.06;4168662;28;7215;-70
2023/12/20 03:21:10;;;;;;;;;;;;;;;9.50;61.17;97292.69;4168926;28;6637;-71
2023/12/20 03:23:12;;;;;;;;;;;;;;;9.49;60.97;97286.59;4169004;28;5741;-71
2023/12/20 03:25:16;;;;;;;;;;;;;;;9.49;61.08;97285.78;4167490;28;5742;-70
2023/12/20 03:27:21;;;;;;;;;;;;;;;9.50;61.26;97290.88;4169398;28;6467;-70
2023/12/20 03:29:24;;;;;;;;;;;;;;;9.50;61.14;97293.50;4166166;28;5722;-70
2023/12/20 03:31:27;;;;;;;;;;;;;;;9.51;61.56;97299.63;4166937;28;5824;-70
2023/12/20 03:33:30;;;;;;;;;;;;;;;9.49;61.34;97291.06;4165832;28;5730;-70
2023/12/20 03:35:33;;;;;;;;;;;;;;;9.49;61.29;97296.34;4161996;28;5730;-70
2023/12/20 03:37:35;;;;;;;;;;;;;;;9.50;61.50;97301.44;4169252;28;5832;-71
2023/12/20 03:39:38;;;;;;;;;;;;;;;9.49;61.83;97291.06;4169559;28;5717;-70
2023/12/20 03:41:41;;;;;;;;;;;;;;;9.49;61.65;97289.25;4169329;28;6544;-71
2023/12/20 03:43:45;;;;;;;;;;;;;;;9.49;61.69;97294.50;4169707;28;5733;-71
2023/12/20 03:45:48;;;;;;;;;;;;;;;9.49;61.89;97289.25;4169188;28;6645;-70
2023/12/20 03:47:54;;;;;;;;;;;;;;;9.49;62.06;97298.97;4160160;28;5765;-70
2023/12/20 03:49:57;;;;;;;;;;;;;;;9.47;61.92;97296.50;4168971;28;5785;-70
2023/12/20 03:52:01;;;;;;;;;;;;;;;9.46;62.12;97299.31;4168908;28;5745;-70
2023/12/20 03:54:04;;;;;;;;;;;;;;;9.44;62.35;97294.22;4169283;28;5779;-71
2023/12/20 03:56:07;;;;;;;;;;;;;;;9.45;62.46;97289.78;4169062;28;5725;-70
2023/12/20 03:58:09;;;;;;;;;;;;;;;9.46;62.09;97300.16;4170752;28;5725;-70
2023/12/20 04:00:14;;;;;;;;;;;;;;;9.47;62.16;97300.97;4169502;28;5734;-71
2023/12/20 04:02:17;;;;;;;;;;;;;;;9.46;62.53;97302.78;4161762;28;5722;-71
2023/12/20 04:04:20;;;;;;;;;;;;;;;9.46;62.42;97296.69;4169194;28;5734;-69
2023/12/20 04:06:24;;;;;;;;;;;;;;;9.45;62.32;97301.16;4168794;28;5726;-69
2023/12/20 04:08:27;;;;;;;;;;;;;;;9.45;62.46;97300.31;4169114;28;5796;-69
2023/12/20 04:10:29;;;;;;;;;;;;;;;9.45;62.76;97297.69;4168977;28;6029;-69
2023/12/20 04:12:52;;;;;;;;;;;;;;;9.47;62.59;97287.78;4167552;28;5793;-69
2023/12/20 04:15:17;;;;;;;;;;;;;;;9.47;62.53;97278.03;4161261;28;5706;-69
2023/12/20 04:17:38;;;;;;;;;;;;;;;9.47;62.73;97282.50;4160035;28;5748;-70
2023/12/20 04:19:41;;;;;;;;;;;;;;;9.48;62.63;97287.59;4168676;28;5754;-70
2023/12/20 04:21:44;;;;;;;;;;;;;;;9.47;62.68;97277.22;4168333;28;5744;-70
2023/12/20 04:23:47;;;;;;;;;;;;;;;9.46;62.84;97281.69;4168518;28;5758;-70
2023/12/20 04:25:50;;;;;;;;;;;;;;;9.46;62.77;97275.56;4160421;28;5844;-70
2023/12/20 04:27:52;;;;;;;;;;;;;;;9.49;62.86;97269.94;4168560;28;5841;-69
2023/12/20 04:29:55;;;;;;;;;;;;;;;9.49;63.07;97270.75;4169552;28;5757;-70
2023/12/20 04:32:00;;;;;;;;;;;;;;;9.50;63.07;97276.88;4171649;28;5827;-70
2023/12/20 04:34:01;;;;;;;;;;;;;;;9.47;62.88;97275.41;4169082;28;5762;-70
2023/12/20 04:36:05;;;;;;;;;;;;;;;9.46;63.00;97286.13;4166709;28;5780;-70
2023/12/20 04:38:09;;;;;;;;;;;;;;;9.45;63.28;97289.78;4168201;28;5758;-70
2023/12/20 04:40:12;;;;;;;;;;;;;;;9.43;63.33;97291.75;4160527;28;5762;-71
2023/12/20 04:42:15;;;;;;;;;;;;;;;9.44;63.58;97296.03;4168874;28;5824;-69
2023/12/20 04:44:18;;;;;;;;;;;;;;;9.43;63.15;97292.59;4167583;28;5726;-70
2023/12/20 04:46:20;;;;;;;;;;;;;;;9.44;63.42;97296.88;4166901;28;5725;-70
2023/12/20 04:48:25;;;;;;;;;;;;;;;9.43;63.18;97303.16;4167331;28;5876;-70
2023/12/20 04:50:28;;;;;;;;;;;;;;;9.41;63.36;97294.59;4168300;28;5979;-70
2023/12/20 04:52:30;;;;;;;;;;;;;;;9.43;63.43;97302.31;4168146;28;5824;-70
2023/12/20 04:54:34;;;;;;;;;;;;;;;9.44;63.81;97301.31;4168083;28;5718;-70
2023/12/20 04:56:37;;;;;;;;;;;;;;;9.43;63.69;97299.69;4169567;28;5854;-70
2023/12/20 04:58:40;;;;;;;;;;;;;;;9.42;63.88;97306.78;4165738;28;5821;-70
2023/12/20 05:00:43;;;;;;;;;;;;;;;9.41;64.00;97310.41;4162534;28;5858;-70
2023/12/20 05:02:46;;;;;;;;;;;;;;;9.44;64.12;97298.69;4161174;28;5746;-70
2023/12/20 05:04:50;;;;;;;;;;;;;;;9.44;63.83;97303.97;4162345;28;5799;-71
2023/12/20 05:06:56;;;;;;;;;;;;;;;9.46;64.04;97307.25;4165835;28;5727;-70
2023/12/20 05:08:59;;;;;;;;;;;;;;;9.45;63.91;97305.59;4168259;28;5761;-71
2023/12/20 05:11:03;;;;;;;;;;;;;;;9.44;63.80;97310.06;4167031;28;5758;-71
2023/12/20 05:13:06;;;;;;;;;;;;;;;9.43;64.14;97312.88;4167883;28;5734;-70
2023/12/20 05:15:09;;;;;;;;;;;;;;;9.44;64.24;97309.25;4167762;28;5733;-71
2023/12/20 05:17:13;;;;;;;;;;;;;;;9.46;64.31;97307.25;4160147;28;5089;-70
2023/12/20 05:19:17;;;;;;;;;;;;;;;9.47;64.40;97303.59;4167618;28;5866;-70
2023/12/20 05:21:20;;;;;;;;;;;;;;;9.49;64.51;97304.25;4167206;28;5797;-70
2023/12/20 05:23:23;;;;;;;;;;;;;;;9.50;63.97;97303.25;4159472;28;5755;-71
2023/12/20 05:25:27;;;;;;;;;;;;;;;9.51;64.16;97310.19;4169006;28;5143;-70
2023/12/20 05:27:31;;;;;;;;;;;;;;;9.53;64.19;97316.94;4172952;28;7774;-70
2023/12/20 05:29:33;;;;;;;;;;;;;;;9.53;64.33;97308.22;4167273;28;5770;-70
2023/12/20 05:31:36;;;;;;;;;;;;;;;9.54;64.43;97309.84;4166123;28;5858;-70
2023/12/20 05:33:38;;;;;;;;;;;;;;;9.52;64.51;97310.03;4167649;28;5745;-70
2023/12/20 05:35:41;;;;;;;;;;;;;;;9.53;64.41;97330.16;4167831;28;5772;-70
2023/12/20 05:37:46;;;;;;;;;;;;;;;9.52;64.41;97340.88;4167855;28;5731;-72
2023/12/20 05:39:49;;;;;;;;;;;;;;;9.51;64.54;97347.13;4168815;28;6486;-72
2023/12/20 05:41:52;;;;;;;;;;;;;;;9.50;64.81;97353.41;4169513;28;5733;-71
2023/12/20 05:43:55;;;;;;;;;;;;;;;9.49;64.53;97354.41;4169427;28;6014;-72
2023/12/20 05:45:58;;;;;;;;;;;;;;;9.49;64.46;97364.94;4168833;28;5824;-72
2023/12/20 05:48:01;;;;;;;;;;;;;;;9.48;64.73;97352.75;4160352;28;5805;-72
2023/12/20 05:50:05;;;;;;;;;;;;;;;9.49;64.64;97352.56;4168222;28;5853;-72
2023/12/20 05:52:08;;;;;;;;;;;;;;;9.52;64.71;97343.53;4162476;28;5891;-72
2023/12/20 05:54:13;;;;;;;;;;;;;;;9.53;64.48;97339.88;4160265;28;5870;-73
2023/12/20 05:56:15;;;;;;;;;;;;;;;9.51;65.00;97328.66;4166545;28;5884;-72
2023/12/20 05:58:17;;;;;;;;;;;;;;;9.54;64.86;97347.63;4167618;28;5089;-71
2023/12/20 06:00:23;;;;;;;;;;;;;;;9.54;64.79;97338.88;4174908;28;5728;-71
2023/12/20 06:02:26;;;;;;;;;;;;;;;9.54;64.76;97339.69;4167705;28;5802;-73
2023/12/20 06:04:29;;;;;;;;;;;;;;;9.54;64.84;97331.78;4167657;28;6832;-74
2023/12/20 06:06:31;;;;;;;;;;;;;;;9.54;64.80;97342.34;4167730;28;5870;-73
2023/12/20 06:08:35;;;;;;;;;;;;;;;9.55;64.70;97351.09;4169031;28;5730;-72
2023/12/20 06:10:40;;;;;;;;;;;;;;;9.52;64.83;97346.16;4170949;28;5853;-72
2023/12/20 06:12:42;;;;;;;;;;;;;;;9.53;64.89;97340.69;4171553;28;5730;-72
2023/12/20 06:14:45;;;;;;;;;;;;;;;9.54;64.79;97338.88;4167063;28;5313;-71
2023/12/20 06:16:48;;;;;;;;;;;;;;;9.56;65.26;97344.81;4168990;28;7277;-71
2023/12/20 06:18:51;;;;;;;;;;;;;;;9.57;64.95;97349.09;4172961;28;5717;-70
2023/12/20 06:20:54;;;;;;;;;;;;;;;9.56;65.13;97350.09;4164314;28;5917;-71
2023/12/20 06:22:57;;;;;;;;;;;;;;;9.56;65.23;97358.81;4166644;28;5823;-71
2023/12/20 06:25:01;;;;;;;;;;;;;;;9.57;65.05;97357.00;4165085;28;5825;-70
2023/12/20 06:27:05;;;;;;;;;;;;;;;9.57;65.04;97357.00;4153525;28;5733;-71
2023/12/20 06:29:08;;;;;;;;;;;;;;;9.57;65.22;97355.19;4161421;28;5810;-68
2023/12/20 06:31:12;;;;;;;;;;;;;;;9.59;65.11;97352.38;4157440;28;5821;-65
2023/12/20 06:33:15;;;;;;;;;;;;;;;9.59;65.31;97347.91;4163606;28;5762;-72
2023/12/20 06:35:19;;;;;;;;;;;;;;;9.61;65.39;97353.00;4161375;28;5764;-66
2023/12/20 06:37:22;;;;;;;;;;;;;;;9.61;65.01;97353.00;4160791;28;5766;-65
2023/12/20 06:39:25;;;;;;;;;;;;;;;9.62;65.10;97359.94;4163593;28;5737;-66
2023/12/20 06:41:29;;;;;;;;;;;;;;;9.60;65.46;97362.75;4161375;28;5824;-72
2023/12/20 06:43:33;;;;;;;;;;;;;;;9.60;65.21;97364.56;4163858;28;5749;-72
2023/12/20 06:45:50;;;;;;;;;;;;;;;9.60;65.23;97369.84;4166777;28;5741;-72
2023/12/20 06:47:54;;;;;;;;;;;;;;;9.58;65.53;97361.28;4166567;28;5735;-72
2023/12/20 06:49:57;;;;;;;;;;;;;;;9.59;65.25;97361.09;4166343;28;5749;-70
2023/12/20 06:52:00;;;;;;;;;;;;;;;9.60;65.45;97362.75;4163874;28;5754;-71
2023/12/20 06:54:03;;;;;;;;;;;;;;;9.60;65.35;97367.22;4166217;28;5746;-71
2023/12/20 06:56:07;;;;;;;;;;;;;;;9.60;65.33;97372.50;4160382;28;5860;-69
2023/12/20 06:58:11;;;;;;;;;;;;;;;9.59;65.58;97374.31;4164306;28;5153;-68
2023/12/20 07:00:16;;;;;;;;;;;;;;;9.58;65.39;97374.47;4168124;28;7729;-68
2023/12/20 07:02:20;;;;;;;;;;;;;;;9.58;65.24;97371.84;4167512;28;5848;-69
2023/12/20 07:04:22;;;;;;;;;;;;;;;9.57;65.49;97373.66;4166849;28;6548;-70
2023/12/20 07:06:26;;;;;;;;;;;;;;;9.57;65.26;97368.38;4165624;28;5198;-68
2023/12/20 07:08:29;;;;;;;;;;;;;;;9.57;65.34;97372.84;4164980;28;5960;-69
2023/12/20 07:10:32;;;;;;;;;;;;;;;9.57;65.31;97373.66;4166079;28;5726;-68
2023/12/20 07:12:35;;;;;;;;;;;;;;;9.56;65.35;97366.75;4164046;28;5837;-69
2023/12/20 07:14:37;;;;;;;;;;;;;;;9.56;65.77;97373.84;4164945;28;5729;-69
2023/12/20 07:16:41;;;;;;;;;;;;;;;9.56;65.57;97377.31;4160376;28;5765;-69
2023/12/20 07:18:44;;;;;;;;;;;;;;;9.57;65.58;97383.41;4166157;28;5770;-69
2023/12/20 07:20:47;;;;;;;;;;;;;;;9.58;65.56;97385.03;4164249;28;5794;-69
2023/12/20 07:22:50;;;;;;;;;;;;;;;9.58;65.75;97383.22;4167309;28;5828;-69
2023/12/20 07:24:54;;;;;;;;;;;;;;;9.58;65.61;97385.03;4168912;28;5809;-69
2023/12/20 07:26:57;;;;;;;;;;;;;;;9.57;65.67;97384.22;4165981;28;5749;-70
2023/12/20 07:29:00;;;;;;;;;;;;;;;9.60;65.42;97378.59;4169128;28;5748;-71
2023/12/20 07:31:03;;;;;;;;;;;;;;;9.62;65.48;97381.06;4168147;28;5753;-69
2023/12/20 07:33:09;;;;;;;;;;;;;;;9.63;65.54;97377.44;4169436;28;5742;-69
2023/12/20 07:35:13;;;;;;;;;;;;;;;9.64;65.89;97389.66;4159524;28;5834;-69
2023/12/20 07:37:16;;;;;;;;;;;;;;;9.63;65.71;97399.38;4162939;28;5913;-69
2023/12/20 07:39:19;;;;;;;;;;;;;;;9.64;65.89;97392.28;4170808;28;5738;-69
2023/12/20 07:41:21;;;;;;;;;;;;;;;9.62;65.61;97396.88;4168152;28;5733;-69
2023/12/20 07:43:24;;;;;;;;;;;;;;;9.63;65.76;97396.75;4168425;28;5721;-69
2023/12/20 07:45:27;;;;;;;;;;;;;;;9.65;65.97;97404.50;4170103;28;5712;-70
2023/12/20 07:47:31;;;;;;;;;;;;;;;9.63;65.79;97409.94;4169500;28;5821;-69
2023/12/20 07:49:35;;;;;;;;;;;;;;;9.64;65.81;97416.06;4165132;28;5093;-67
2023/12/20 07:51:38;;;;;;;;;;;;;;;9.65;66.09;97427.44;4168815;28;5722;-68
2023/12/20 07:53:40;;;;;;;;;;;;;;;9.65;65.99;97420.34;4167949;28;5750;-68
2023/12/20 07:55:43;;;;;;;;;;;;;;;9.67;66.33;97420.16;4169241;28;5871;-69
2023/12/20 07:57:46;;;;;;;;;;;;;;;9.68;66.26;97417.34;4166250;28;5723;-69
2023/12/20 07:59:49;;;;;;;;;;;;;;;9.68;66.31;97416.53;4165569;28;5852;-68
2023/12/20 08:01:52;;;;;;;;;;;;;;;9.69;66.35;97413.69;4167801;28;5729;-69
2023/12/20 08:03:55;;;;;;;;;;;;;;;9.69;65.94;97421.63;4167062;28;5722;-69
2023/12/20 08:06:00;;;;;;;;;;;;;;;9.70;66.07;97425.91;4162591;28;5907;-72
2023/12/20 08:08:04;;;;;;;;;;;;;;;9.73;66.05;97416.81;4167875;28;5753;-67
2023/12/20 08:10:08;;;;;;;;;;;;;;;9.74;66.15;97419.31;4163744;28;5752;-68
2023/12/20 08:12:11;;;;;;;;;;;;;;;9.76;66.34;97421.75;4166907;28;5816;-66
2023/12/20 08:14:14;;;;;;;;;;;;;;;9.76;66.40;97422.59;4169139;28;5737;-67
2023/12/20 08:16:20;;;;;;;;;;;;;;;9.79;66.51;97418.78;4167307;28;5847;-69
2023/12/20 08:18:23;;;;;;;;;;;;;;;9.79;66.45;97413.50;4166336;28;5809;-68
2023/12/20 08:20:27;;;;;;;;;;;;;;;9.80;66.15;97417.78;4168827;28;5769;-70
2023/12/20 08:22:43;;;;;;;;;;;;;;;9.80;66.11;97415.13;4168407;28;5833;-68
2023/12/20 08:24:46;;;;;;;;;;;;;;;9.80;66.48;97415.97;4168633;28;5722;-67
2023/12/20 08:26:50;;;;;;;;;;;;;;;9.79;66.45;97422.22;4168460;28;5831;-68
2023/12/20 08:28:53;;;;;;;;;;;;;;;9.79;66.35;97430.16;4168489;28;5846;-68
2023/12/20 08:30:58;;;;;;;;;;;;;;;9.81;66.32;97433.44;4168715;28;5829;-68
2023/12/20 08:33:02;;;;;;;;;;;;;;;9.81;66.56;97432.63;4160789;28;5825;-67
2023/12/20 08:35:05;;;;;;;;;;;;;;;9.82;66.45;97440.38;4168601;28;5820;-68
2023/12/20 08:37:09;;;;;;;;;;;;;;;9.81;66.29;97438.72;4167317;28;5730;-68
2023/12/20 08:39:13;;;;;;;;;;;;;;;9.81;66.33;97440.53;4167796;28;6695;-68
2023/12/20 08:41:17;;;;;;;;;;;;;;;9.82;66.50;97450.94;4164238;28;5745;-67
2023/12/20 08:43:19;;;;;;;;;;;;;;;9.82;66.62;97456.22;4168346;28;5893;-67
2023/12/20 08:45:22;;;;;;;;;;;;;;;9.84;66.39;97448.13;4167499;28;5729;-67
2023/12/20 08:47:26;;;;;;;;;;;;;;;9.84;66.37;97443.66;4162439;28;5826;-67
2023/12/20 08:49:29;;;;;;;;;;;;;;;9.87;66.59;97453.06;4167840;28;9188;-66
2023/12/20 08:51:33;;;;;;;;;;;;;;;9.89;66.28;97457.19;4168036;28;6004;-67
2023/12/20 08:53:36;;;;;;;;;;;;;;;9.90;66.71;97461.47;4167928;28;5734;-66
2023/12/20 08:55:41;;;;;;;;;;;;;;;9.91;66.67;97455.19;4167187;28;5825;-76
2023/12/20 08:57:44;;;;;;;;;;;;;;;9.91;66.43;97449.91;4161186;28;5826;-70
2023/12/20 08:59:48;;;;;;;;;;;;;;;9.95;66.40;97457.47;4165385;28;6427;-71
2023/12/20 09:01:54;;;;;;;;;;;;;;;9.96;66.51;97462.56;4163500;28;5846;-73
2023/12/20 09:03:58;;;;;;;;;;;;;;;9.98;66.49;97460.63;4163871;28;5846;-71
2023/12/20 09:06:02;;;;;;;;;;;;;;;9.98;66.47;97460.63;4167389;28;5739;-65
2023/12/20 09:08:07;;;;;;;;;;;;;;;10.00;66.36;97457.78;4167460;28;5726;-65
2023/12/20 09:10:10;;;;;;;;;;;;;;;10.01;66.44;97448.88;4160023;28;5939;-66
2023/12/20 09:12:15;;;;;;;;;;;;;;;10.02;66.32;97450.50;4167948;28;5726;-66
2023/12/20 09:14:18;;;;;;;;;;;;;;;10.03;66.48;97460.06;4167867;28;6032;-66
2023/12/20 09:16:22;;;;;;;;;;;;;;;10.04;66.37;97464.38;4166043;28;5743;-66
2023/12/20 09:18:25;;;;;;;;;;;;;;;10.04;66.58;97454.63;4167358;28;5737;-65
2023/12/20 09:20:29;;;;;;;;;;;;;;;10.07;66.40;97461.38;4159452;28;5976;-67
2023/12/20 09:22:33;;;;;;;;;;;;;;;10.06;66.23;97452.63;4166216;28;6571;-67
2023/12/20 09:24:36;;;;;;;;;;;;;;;10.08;66.58;97449.81;4167647;28;5783;-67
2023/12/20 09:26:40;;;;;;;;;;;;;;;10.10;66.54;97448.66;4163729;28;5750;-66
2023/12/20 09:28:46;;;;;;;;;;;;;;;10.12;66.44;97451.13;4166460;28;5754;-66
2023/12/20 09:30:49;;;;;;;;;;;;;;;10.12;66.33;97451.13;4161327;28;5759;-66
2023/12/20 09:32:52;;;;;;;;;;;;;;;10.13;66.49;97452.75;4165244;28;5734;-68
2023/12/20 09:34:56;;;;;;;;;;;;;;;10.14;66.53;97457.03;4166269;28;5759;-66
2023/12/20 09:36:59;;;;;;;;;;;;;;;10.13;66.52;97450.94;4164446;28;5825;-67
2023/12/20 09:39:02;;;;;;;;;;;;;;;10.14;66.05;97452.59;4166237;28;5254;-68
2023/12/20 09:41:05;;;;;;;;;;;;;;;10.15;66.08;97451.59;4163836;28;5738;-67
2023/12/20 09:43:12;;;;;;;;;;;;;;;10.15;66.12;97450.75;4167225;28;5753;-68
2023/12/20 09:45:21;;;;;;;;;;;;;;;10.16;66.39;97453.22;4166576;28;5745;-62
2023/12/20 09:47:25;;;;;;;;;;;;;;;10.17;66.47;97452.22;4160591;28;5777;-64
2023/12/20 09:49:29;;;;;;;;;;;;;;;10.17;66.13;97452.22;4165154;28;6211;-66
2023/12/20 09:51:32;;;;;;;;;;;;;;;10.19;66.12;97452.03;4160143;28;7793;-67
2023/12/20 09:53:37;;;;;;;;;;;;;;;10.20;66.34;97451.09;4161872;28;5788;-65
2023/12/20 09:55:42;;;;;;;;;;;;;;;10.20;66.16;97449.25;4166128;28;6491;-69
2023/12/20 09:57:46;;;;;;;;;;;;;;;10.21;66.09;97447.44;4165570;28;5731;-66
2023/12/20 09:59:50;;;;;;;;;;;;;;;10.22;66.16;97445.66;4163087;28;5888;-66
2023/12/20 10:01:56;;;;;;;;;;;;;;;10.23;66.00;97434.06;4165598;28;6458;-66
2023/12/20 10:04:02;;;;;;;;;;;;;;;10.25;66.04;97440.00;4164771;28;5830;-64
2023/12/20 10:06:08;;;;;;;;;;;;;;;10.25;66.00;97440.81;4166399;28;5749;-65
2023/12/20 10:08:10;;;;;;;;;;;;;;;10.25;66.09;97440.81;4166932;28;5734;-67
2023/12/20 10:10:14;;;;;;;;;;;;;;;10.25;66.12;97438.19;4163679;28;6419;-65
2023/12/20 10:12:18;;;;;;;;;;;;;;;10.25;66.11;97442.66;4164871;28;5741;-65
2023/12/20 10:14:24;;;;;;;;;;;;;;;10.25;65.96;97440.81;4167304;28;5824;-68
2023/12/20 10:16:27;;;;;;;;;;;;;;;10.25;66.27;97440.81;4163752;28;5745;-69
2023/12/20 10:18:31;;;;;;;;;;;;;;;10.25;66.24;97432.06;4166453;28;6705;-66
2023/12/20 10:20:42;;;;;;;;;;;;;;;10.26;66.28;97431.91;4167677;28;5759;-66
2023/12/20 10:22:47;;;;;;;;;;;;;;;10.25;66.46;97424.97;4163811;28;5809;-66
2023/12/20 10:24:50;;;;;;;;;;;;;;;10.24;66.23;97427.78;4164365;28;5734;-66
2023/12/20 10:27:04;;;;;;;;;;;;;;;10.22;66.32;97421.88;4166988;28;5737;-67
2023/12/20 10:29:07;;;;;;;;;;;;;;;10.24;66.51;97425.16;4166443;28;5742;-68
2023/12/20 10:31:10;;;;;;;;;;;;;;;10.24;66.13;97415.41;4167016;28;5722;-71
2023/12/20 10:33:13;;;;;;;;;;;;;;;10.22;66.60;97409.47;4163073;28;5896;-67
2023/12/20 10:35:16;;;;;;;;;;;;;;;10.22;66.44;97406.84;4164475;28;6482;-66
2023/12/20 10:37:20;;;;;;;;;;;;;;;10.22;66.19;97408.66;4160780;28;5816;-68
2023/12/20 10:39:24;;;;;;;;;;;;;;;10.19;66.30;97409.78;4164494;28;5974;-67
2023/12/20 10:41:29;;;;;;;;;;;;;;;10.19;66.32;97409.78;4161571;28;6528;-65
2023/12/20 10:43:33;;;;;;;;;;;;;;;10.19;66.21;97404.50;4165778;28;5730;-66
2023/12/20 10:45:37;;;;;;;;;;;;;;;10.22;66.45;97408.66;4166705;28;5734;-67
2023/12/20 10:47:41;;;;;;;;;;;;;;;10.21;66.34;97397.22;4165866;28;5749;-65
2023/12/20 10:49:47;;;;;;;;;;;;;;;10.22;66.53;97398.09;4165983;28;5749;-67
2023/12/20 10:51:57;;;;;;;;;;;;;;;10.21;66.13;97391.94;4165916;28;5821;-66
2023/12/20 10:54:00;;;;;;;;;;;;;;;10.21;66.42;97384.03;4165712;28;5730;-68
2023/12/20 10:56:04;;;;;;;;;;;;;;;10.21;66.42;97391.94;4164936;28;5944;-67
2023/12/20 10:58:09;;;;;;;;;;;;;;;10.24;66.62;97396.91;4169835;28;5742;-67
2023/12/20 11:00:15;;;;;;;;;;;;;;;10.26;66.48;97392.25;4168205;28;5742;-65